<?xml version="1.0" encoding="UTF-8" standalone="no" ?>
<gpx xmlns="http://www.topografix.com/GPX/1/1" xmlns:xsi="http://www.w3.org/2001/XMLSchema-instance" xsi:schemaLocation="http://www.topografix.com/GPX/1/1 http://www.topografix.com/GPX/1/1/gpx.xsd" version="1.1" creator="VisuGPX - https://www.visugpx.com">
  <metadata>
    <name>charmant som</name>
  </metadata>
  <trk>
    <name><![CDATA[2020-02-06 08:21]]></name>
    <extensions>
      <line xmlns="http://www.topografix.com/GPX/gpx_style/0/2">
        <color>0000FF</color>
        <width>4</width>
      </line>
    </extensions>
    <trkseg>
      <trkpt lat="45.3099" lon="5.76952">
        <ele>1134</ele>
        <time>2020-02-06T07:21:23Z</time>
      </trkpt>
      <trkpt lat="45.30972" lon="5.76944">
        <ele>1136</ele>
        <time>2020-02-06T07:23:37Z</time>
      </trkpt>
      <trkpt lat="45.30954" lon="5.76935">
        <ele>1137</ele>
        <time>2020-02-06T07:23:51Z</time>
      </trkpt>
      <trkpt lat="45.30945" lon="5.76913">
        <ele>1145</ele>
        <time>2020-02-06T07:25:01Z</time>
      </trkpt>
      <trkpt lat="45.30941" lon="5.76887">
        <ele>1146</ele>
        <time>2020-02-06T07:25:23Z</time>
      </trkpt>
      <trkpt lat="45.30939" lon="5.76861">
        <ele>1148</ele>
        <time>2020-02-06T07:25:57Z</time>
      </trkpt>
      <trkpt lat="45.30927" lon="5.76842">
        <ele>1150</ele>
        <time>2020-02-06T07:26:29Z</time>
      </trkpt>
      <trkpt lat="45.30914" lon="5.76823">
        <ele>1158</ele>
        <time>2020-02-06T07:27:09Z</time>
      </trkpt>
      <trkpt lat="45.30898" lon="5.76808">
        <ele>1165</ele>
        <time>2020-02-06T07:27:49Z</time>
      </trkpt>
      <trkpt lat="45.30884" lon="5.76791">
        <ele>1169</ele>
        <time>2020-02-06T07:28:39Z</time>
      </trkpt>
      <trkpt lat="45.30866" lon="5.76779">
        <ele>1171</ele>
        <time>2020-02-06T07:29:05Z</time>
      </trkpt>
      <trkpt lat="45.30849" lon="5.76765">
        <ele>1175</ele>
        <time>2020-02-06T07:29:29Z</time>
      </trkpt>
      <trkpt lat="45.30837" lon="5.76745">
        <ele>1181</ele>
        <time>2020-02-06T07:29:45Z</time>
      </trkpt>
      <trkpt lat="45.30822" lon="5.76729">
        <ele>1184</ele>
        <time>2020-02-06T07:30:15Z</time>
      </trkpt>
      <trkpt lat="45.30806" lon="5.76717">
        <ele>1184</ele>
        <time>2020-02-06T07:30:37Z</time>
      </trkpt>
      <trkpt lat="45.30795" lon="5.76696">
        <ele>1185</ele>
        <time>2020-02-06T07:31:05Z</time>
      </trkpt>
      <trkpt lat="45.30792" lon="5.76669">
        <ele>1186</ele>
        <time>2020-02-06T07:31:31Z</time>
      </trkpt>
      <trkpt lat="45.30778" lon="5.76651">
        <ele>1193</ele>
        <time>2020-02-06T07:31:55Z</time>
      </trkpt>
      <trkpt lat="45.30787" lon="5.76626">
        <ele>1196</ele>
        <time>2020-02-06T07:32:17Z</time>
      </trkpt>
      <trkpt lat="45.30802" lon="5.76606">
        <ele>1199</ele>
        <time>2020-02-06T07:34:03Z</time>
      </trkpt>
      <trkpt lat="45.30803" lon="5.76577">
        <ele>1211</ele>
        <time>2020-02-06T07:34:39Z</time>
      </trkpt>
      <trkpt lat="45.30805" lon="5.76551">
        <ele>1213</ele>
        <time>2020-02-06T07:35:09Z</time>
      </trkpt>
      <trkpt lat="45.30812" lon="5.76525">
        <ele>1216</ele>
        <time>2020-02-06T07:35:31Z</time>
      </trkpt>
      <trkpt lat="45.30825" lon="5.76506">
        <ele>1218</ele>
        <time>2020-02-06T07:35:53Z</time>
      </trkpt>
      <trkpt lat="45.30827" lon="5.76505">
        <ele>1218</ele>
      </trkpt>
      <trkpt lat="45.3084" lon="5.76487">
        <ele>1224</ele>
        <time>2020-02-06T07:36:07Z</time>
      </trkpt>
      <trkpt lat="45.30849" lon="5.76462">
        <ele>1228</ele>
        <time>2020-02-06T07:36:37Z</time>
      </trkpt>
      <trkpt lat="45.30842" lon="5.76436">
        <ele>1230</ele>
        <time>2020-02-06T07:36:51Z</time>
      </trkpt>
      <trkpt lat="45.30832" lon="5.76414">
        <ele>1234</ele>
        <time>2020-02-06T07:37:17Z</time>
      </trkpt>
      <trkpt lat="45.30825" lon="5.7639">
        <ele>1242</ele>
        <time>2020-02-06T07:37:43Z</time>
      </trkpt>
      <trkpt lat="45.30819" lon="5.76365">
        <ele>1246</ele>
        <time>2020-02-06T07:38:09Z</time>
      </trkpt>
      <trkpt lat="45.30812" lon="5.76339">
        <ele>1247</ele>
        <time>2020-02-06T07:38:35Z</time>
      </trkpt>
      <trkpt lat="45.308" lon="5.76319">
        <ele>1257</ele>
        <time>2020-02-06T07:39:05Z</time>
      </trkpt>
      <trkpt lat="45.3079" lon="5.76298">
        <ele>1260</ele>
        <time>2020-02-06T07:39:23Z</time>
      </trkpt>
      <trkpt lat="45.30783" lon="5.76274">
        <ele>1262</ele>
        <time>2020-02-06T07:39:41Z</time>
      </trkpt>
      <trkpt lat="45.30772" lon="5.76256">
        <ele>1264</ele>
      </trkpt>
      <trkpt lat="45.30755" lon="5.76234">
        <ele>1272</ele>
        <time>2020-02-06T07:40:37Z</time>
      </trkpt>
      <trkpt lat="45.30743" lon="5.76211">
        <ele>1280</ele>
        <time>2020-02-06T07:40:51Z</time>
      </trkpt>
      <trkpt lat="45.3073" lon="5.76188">
        <ele>1282</ele>
        <time>2020-02-06T07:41:29Z</time>
      </trkpt>
      <trkpt lat="45.30718" lon="5.76165">
        <ele>1289</ele>
        <time>2020-02-06T07:41:47Z</time>
      </trkpt>
      <trkpt lat="45.30703" lon="5.7615">
        <ele>1292</ele>
        <time>2020-02-06T07:42:13Z</time>
      </trkpt>
      <trkpt lat="45.30691" lon="5.76131">
        <ele>1294</ele>
        <time>2020-02-06T07:42:57Z</time>
      </trkpt>
      <trkpt lat="45.30675" lon="5.76115">
        <ele>1294</ele>
        <time>2020-02-06T07:43:09Z</time>
      </trkpt>
      <trkpt lat="45.30664" lon="5.76094">
        <ele>1298</ele>
        <time>2020-02-06T07:43:33Z</time>
      </trkpt>
      <trkpt lat="45.30651" lon="5.76076">
        <ele>1303</ele>
        <time>2020-02-06T07:44:01Z</time>
      </trkpt>
      <trkpt lat="45.30636" lon="5.7606">
        <ele>1308</ele>
        <time>2020-02-06T07:44:31Z</time>
      </trkpt>
      <trkpt lat="45.30639" lon="5.76034">
        <ele>1311</ele>
        <time>2020-02-06T07:44:59Z</time>
      </trkpt>
      <trkpt lat="45.30623" lon="5.76021">
        <ele>1313</ele>
        <time>2020-02-06T07:45:43Z</time>
      </trkpt>
      <trkpt lat="45.30622" lon="5.75994">
        <ele>1326</ele>
        <time>2020-02-06T07:46:31Z</time>
      </trkpt>
      <trkpt lat="45.3063" lon="5.7597">
        <ele>1329</ele>
        <time>2020-02-06T07:47:11Z</time>
      </trkpt>
      <trkpt lat="45.30618" lon="5.75947">
        <ele>1333</ele>
        <time>2020-02-06T07:48:11Z</time>
      </trkpt>
      <trkpt lat="45.30608" lon="5.75926">
        <ele>1337</ele>
        <time>2020-02-06T07:49:03Z</time>
      </trkpt>
      <trkpt lat="45.30608" lon="5.75898">
        <ele>1356</ele>
        <time>2020-02-06T07:49:59Z</time>
      </trkpt>
      <trkpt lat="45.306" lon="5.75876">
        <ele>1360</ele>
        <time>2020-02-06T07:50:29Z</time>
      </trkpt>
      <trkpt lat="45.30584" lon="5.75859">
        <ele>1364</ele>
        <time>2020-02-06T07:51:09Z</time>
      </trkpt>
      <trkpt lat="45.30569" lon="5.75843">
        <ele>1368</ele>
        <time>2020-02-06T07:51:37Z</time>
      </trkpt>
      <trkpt lat="45.30563" lon="5.75819">
        <ele>1382</ele>
        <time>2020-02-06T07:52:17Z</time>
      </trkpt>
      <trkpt lat="45.30574" lon="5.75791">
        <ele>1387</ele>
        <time>2020-02-06T07:52:55Z</time>
      </trkpt>
      <trkpt lat="45.30556" lon="5.75796">
        <ele>1387</ele>
        <time>2020-02-06T07:53:11Z</time>
      </trkpt>
      <trkpt lat="45.30553" lon="5.7577">
        <ele>1391</ele>
        <time>2020-02-06T07:53:57Z</time>
      </trkpt>
      <trkpt lat="45.3055" lon="5.75743">
        <ele>1406</ele>
        <time>2020-02-06T07:54:43Z</time>
      </trkpt>
      <trkpt lat="45.30549" lon="5.75717">
        <ele>1409</ele>
        <time>2020-02-06T07:55:13Z</time>
      </trkpt>
      <trkpt lat="45.30555" lon="5.7569">
        <ele>1412</ele>
        <time>2020-02-06T07:55:39Z</time>
      </trkpt>
      <trkpt lat="45.30551" lon="5.75662">
        <ele>1427</ele>
        <time>2020-02-06T07:56:05Z</time>
      </trkpt>
      <trkpt lat="45.30537" lon="5.75646">
        <ele>1428</ele>
        <time>2020-02-06T07:56:43Z</time>
      </trkpt>
      <trkpt lat="45.30527" lon="5.75622">
        <ele>1431</ele>
        <time>2020-02-06T07:57:15Z</time>
      </trkpt>
      <trkpt lat="45.3051" lon="5.75611">
        <ele>1433</ele>
        <time>2020-02-06T07:57:47Z</time>
      </trkpt>
      <trkpt lat="45.30492" lon="5.75595">
        <ele>1443</ele>
        <time>2020-02-06T07:58:15Z</time>
      </trkpt>
      <trkpt lat="45.3048" lon="5.75576">
        <ele>1455</ele>
        <time>2020-02-06T07:58:43Z</time>
      </trkpt>
      <trkpt lat="45.30476" lon="5.7555">
        <ele>1461</ele>
        <time>2020-02-06T07:59:21Z</time>
      </trkpt>
      <trkpt lat="45.30471" lon="5.75525">
        <ele>1464</ele>
        <time>2020-02-06T07:59:51Z</time>
      </trkpt>
      <trkpt lat="45.30464" lon="5.755">
        <ele>1477</ele>
        <time>2020-02-06T08:00:19Z</time>
      </trkpt>
      <trkpt lat="45.30464" lon="5.75474">
        <ele>1479</ele>
        <time>2020-02-06T08:00:51Z</time>
      </trkpt>
      <trkpt lat="45.30466" lon="5.75448">
        <ele>1481</ele>
        <time>2020-02-06T08:01:27Z</time>
      </trkpt>
      <trkpt lat="45.30467" lon="5.75422">
        <ele>1483</ele>
        <time>2020-02-06T08:02:09Z</time>
      </trkpt>
      <trkpt lat="45.30474" lon="5.75399">
        <ele>1493</ele>
        <time>2020-02-06T08:02:43Z</time>
      </trkpt>
      <trkpt lat="45.30474" lon="5.75373">
        <ele>1497</ele>
        <time>2020-02-06T08:03:35Z</time>
      </trkpt>
      <trkpt lat="45.30471" lon="5.75343">
        <ele>1500</ele>
        <time>2020-02-06T08:04:21Z</time>
      </trkpt>
      <trkpt lat="45.30455" lon="5.75329">
        <ele>1510</ele>
        <time>2020-02-06T08:05:59Z</time>
      </trkpt>
      <trkpt lat="45.30448" lon="5.75304">
        <ele>1512</ele>
        <time>2020-02-06T08:06:31Z</time>
      </trkpt>
      <trkpt lat="45.30447" lon="5.75276">
        <ele>1516</ele>
        <time>2020-02-06T08:07:09Z</time>
      </trkpt>
      <trkpt lat="45.30446" lon="5.7525">
        <ele>1518</ele>
        <time>2020-02-06T08:07:33Z</time>
      </trkpt>
      <trkpt lat="45.30447" lon="5.75225">
        <ele>1530</ele>
        <time>2020-02-06T08:07:51Z</time>
      </trkpt>
      <trkpt lat="45.30443" lon="5.75198">
        <ele>1533</ele>
        <time>2020-02-06T08:08:15Z</time>
      </trkpt>
      <trkpt lat="45.30437" lon="5.75173">
        <ele>1535</ele>
        <time>2020-02-06T08:08:47Z</time>
      </trkpt>
      <trkpt lat="45.30433" lon="5.75146">
        <ele>1544</ele>
        <time>2020-02-06T08:09:13Z</time>
      </trkpt>
      <trkpt lat="45.30429" lon="5.75121">
        <ele>1547</ele>
        <time>2020-02-06T08:09:39Z</time>
      </trkpt>
      <trkpt lat="45.30425" lon="5.75093">
        <ele>1550</ele>
        <time>2020-02-06T08:10:07Z</time>
      </trkpt>
      <trkpt lat="45.30421" lon="5.75065">
        <ele>1559</ele>
        <time>2020-02-06T08:10:39Z</time>
      </trkpt>
      <trkpt lat="45.30433" lon="5.75043">
        <ele>1565</ele>
        <time>2020-02-06T08:11:17Z</time>
      </trkpt>
      <trkpt lat="45.30417" lon="5.75031">
        <ele>1566</ele>
        <time>2020-02-06T08:12:05Z</time>
      </trkpt>
      <trkpt lat="45.3042" lon="5.75005">
        <ele>1568</ele>
        <time>2020-02-06T08:12:37Z</time>
      </trkpt>
      <trkpt lat="45.30422" lon="5.7498">
        <ele>1578</ele>
        <time>2020-02-06T08:13:35Z</time>
      </trkpt>
      <trkpt lat="45.30426" lon="5.74953">
        <ele>1583</ele>
        <time>2020-02-06T08:13:59Z</time>
      </trkpt>
      <trkpt lat="45.3043" lon="5.74928">
        <ele>1585</ele>
        <time>2020-02-06T08:14:47Z</time>
      </trkpt>
      <trkpt lat="45.30442" lon="5.74909">
        <ele>1597</ele>
        <time>2020-02-06T08:15:19Z</time>
      </trkpt>
      <trkpt lat="45.30439" lon="5.74883">
        <ele>1600</ele>
        <time>2020-02-06T08:15:55Z</time>
      </trkpt>
      <trkpt lat="45.30444" lon="5.74856">
        <ele>1604</ele>
        <time>2020-02-06T08:16:43Z</time>
      </trkpt>
      <trkpt lat="45.3045" lon="5.7483">
        <ele>1619</ele>
        <time>2020-02-06T08:17:21Z</time>
      </trkpt>
      <trkpt lat="45.3044" lon="5.74809">
        <ele>1620</ele>
        <time>2020-02-06T08:18:03Z</time>
      </trkpt>
      <trkpt lat="45.30432" lon="5.74786">
        <ele>1623</ele>
        <time>2020-02-06T08:18:39Z</time>
      </trkpt>
      <trkpt lat="45.30428" lon="5.74759">
        <ele>1625</ele>
        <time>2020-02-06T08:19:25Z</time>
      </trkpt>
      <trkpt lat="45.30435" lon="5.74734">
        <ele>1637</ele>
        <time>2020-02-06T08:20:07Z</time>
      </trkpt>
      <trkpt lat="45.3043" lon="5.74708">
        <ele>1641</ele>
        <time>2020-02-06T08:20:41Z</time>
      </trkpt>
      <trkpt lat="45.30446" lon="5.74692">
        <ele>1644</ele>
        <time>2020-02-06T08:21:31Z</time>
      </trkpt>
      <trkpt lat="45.3062" lon="5.74742">
        <ele>1675</ele>
      </trkpt>
      <trkpt lat="45.30773" lon="5.74889">
        <ele>1675</ele>
      </trkpt>
      <trkpt lat="45.30931" lon="5.75309">
        <ele>1624</ele>
        <time>2020-02-06T08:37:07Z</time>
      </trkpt>
      <trkpt lat="45.30949" lon="5.75315">
        <ele>1624</ele>
        <time>2020-02-06T08:37:34Z</time>
      </trkpt>
      <trkpt lat="45.3096" lon="5.75336">
        <ele>1623</ele>
        <time>2020-02-06T08:38:06Z</time>
      </trkpt>
      <trkpt lat="45.3098" lon="5.75348">
        <ele>1624</ele>
        <time>2020-02-06T08:38:24Z</time>
      </trkpt>
      <trkpt lat="45.30994" lon="5.75366">
        <ele>1623</ele>
        <time>2020-02-06T08:38:44Z</time>
      </trkpt>
      <trkpt lat="45.31013" lon="5.75378">
        <ele>1626</ele>
        <time>2020-02-06T08:38:56Z</time>
      </trkpt>
      <trkpt lat="45.31031" lon="5.75384">
        <ele>1626</ele>
        <time>2020-02-06T08:39:18Z</time>
      </trkpt>
      <trkpt lat="45.31048" lon="5.75392">
        <ele>1626</ele>
        <time>2020-02-06T08:39:34Z</time>
      </trkpt>
      <trkpt lat="45.31063" lon="5.7541">
        <ele>1629</ele>
        <time>2020-02-06T08:39:54Z</time>
      </trkpt>
      <trkpt lat="45.31078" lon="5.75424">
        <ele>1631</ele>
        <time>2020-02-06T08:40:10Z</time>
      </trkpt>
      <trkpt lat="45.31095" lon="5.7544">
        <ele>1633</ele>
        <time>2020-02-06T08:40:24Z</time>
      </trkpt>
      <trkpt lat="45.31108" lon="5.75462">
        <ele>1633</ele>
        <time>2020-02-06T08:41:14Z</time>
      </trkpt>
      <trkpt lat="45.31125" lon="5.75476">
        <ele>1633</ele>
        <time>2020-02-06T08:41:32Z</time>
      </trkpt>
      <trkpt lat="45.31145" lon="5.75475">
        <ele>1634</ele>
        <time>2020-02-06T08:41:48Z</time>
      </trkpt>
      <trkpt lat="45.3135" lon="5.7538">
        <ele>1639</ele>
      </trkpt>
      <trkpt lat="45.31496" lon="5.75396">
        <ele>1651</ele>
      </trkpt>
      <trkpt lat="45.31631" lon="5.75483">
        <ele>1665</ele>
      </trkpt>
      <trkpt lat="45.31749" lon="5.75617">
        <ele>1661</ele>
      </trkpt>
      <trkpt lat="45.31811" lon="5.75593">
        <ele>1671</ele>
      </trkpt>
      <trkpt lat="45.31877" lon="5.75661">
        <ele>1676</ele>
      </trkpt>
      <trkpt lat="45.31894" lon="5.75767">
        <ele>1675</ele>
      </trkpt>
      <trkpt lat="45.3193" lon="5.7587">
        <ele>1686</ele>
        <time>2020-02-06T08:57:41Z</time>
      </trkpt>
      <trkpt lat="45.31949" lon="5.75877">
        <ele>1688</ele>
        <time>2020-02-06T08:58:26Z</time>
      </trkpt>
      <trkpt lat="45.31965" lon="5.75894">
        <ele>1690</ele>
        <time>2020-02-06T08:58:46Z</time>
      </trkpt>
      <trkpt lat="45.31969" lon="5.7592">
        <ele>1699</ele>
        <time>2020-02-06T08:59:14Z</time>
      </trkpt>
      <trkpt lat="45.31965" lon="5.75946">
        <ele>1700</ele>
        <time>2020-02-06T09:00:02Z</time>
      </trkpt>
      <trkpt lat="45.31968" lon="5.75973">
        <ele>1703</ele>
        <time>2020-02-06T09:01:16Z</time>
      </trkpt>
      <trkpt lat="45.31953" lon="5.75988">
        <ele>1702</ele>
        <time>2020-02-06T09:01:32Z</time>
      </trkpt>
      <trkpt lat="45.31948" lon="5.76014">
        <ele>1709</ele>
        <time>2020-02-06T09:02:02Z</time>
      </trkpt>
      <trkpt lat="45.31939" lon="5.7604">
        <ele>1709</ele>
        <time>2020-02-06T09:02:32Z</time>
      </trkpt>
      <trkpt lat="45.3201" lon="5.76159">
        <ele>1733</ele>
      </trkpt>
      <trkpt lat="45.32126" lon="5.76135">
        <ele>1779</ele>
      </trkpt>
      <trkpt lat="45.32192" lon="5.76198">
        <ele>1804</ele>
      </trkpt>
      <trkpt lat="45.32264" lon="5.7618">
        <ele>1823</ele>
      </trkpt>
      <trkpt lat="45.32325" lon="5.7622">
        <ele>1822</ele>
      </trkpt>
      <trkpt lat="45.32371" lon="5.76295">
        <ele>1821</ele>
        <time>2020-02-06T09:17:49Z</time>
      </trkpt>
      <trkpt lat="45.3235" lon="5.76264">
        <ele>1822</ele>
        <time>2020-02-06T09:17:52Z</time>
      </trkpt>
      <trkpt lat="45.32365" lon="5.76279">
        <ele>1821</ele>
        <time>2020-02-06T09:18:10Z</time>
      </trkpt>
      <trkpt lat="45.32382" lon="5.76291">
        <ele>1821</ele>
        <time>2020-02-06T09:18:28Z</time>
      </trkpt>
      <trkpt lat="45.32399" lon="5.76303">
        <ele>1822</ele>
        <time>2020-02-06T09:18:48Z</time>
      </trkpt>
      <trkpt lat="45.32415" lon="5.76314">
        <ele>1825</ele>
        <time>2020-02-06T09:19:04Z</time>
      </trkpt>
      <trkpt lat="45.32429" lon="5.76332">
        <ele>1824</ele>
        <time>2020-02-06T09:19:56Z</time>
      </trkpt>
      <trkpt lat="45.32445" lon="5.7635">
        <ele>1833</ele>
        <time>2020-02-06T09:20:30Z</time>
      </trkpt>
      <trkpt lat="45.3246" lon="5.76369">
        <ele>1834</ele>
        <time>2020-02-06T09:21:00Z</time>
      </trkpt>
      <trkpt lat="45.32476" lon="5.76386">
        <ele>1836</ele>
        <time>2020-02-06T09:21:28Z</time>
      </trkpt>
      <trkpt lat="45.32492" lon="5.76398">
        <ele>1840</ele>
        <time>2020-02-06T09:21:48Z</time>
      </trkpt>
      <trkpt lat="45.3238" lon="5.76141">
        <ele>1795</ele>
        <time>2020-02-06T09:38:35Z</time>
      </trkpt>
      <trkpt lat="45.32385" lon="5.76116">
        <ele>1791</ele>
        <time>2020-02-06T09:39:42Z</time>
      </trkpt>
      <trkpt lat="45.32379" lon="5.76085">
        <ele>1789</ele>
        <time>2020-02-06T09:40:00Z</time>
      </trkpt>
      <trkpt lat="45.32378" lon="5.76059">
        <ele>1769</ele>
        <time>2020-02-06T09:40:04Z</time>
      </trkpt>
      <trkpt lat="45.32359" lon="5.76056">
        <ele>1772</ele>
        <time>2020-02-06T09:40:10Z</time>
      </trkpt>
      <trkpt lat="45.3235" lon="5.76002">
        <ele>1761</ele>
        <time>2020-02-06T09:40:38Z</time>
      </trkpt>
      <trkpt lat="45.32339" lon="5.75968">
        <ele>1745</ele>
        <time>2020-02-06T09:40:42Z</time>
      </trkpt>
      <trkpt lat="45.32325" lon="5.75932">
        <ele>1743</ele>
        <time>2020-02-06T09:40:46Z</time>
      </trkpt>
      <trkpt lat="45.32312" lon="5.75895">
        <ele>1730</ele>
        <time>2020-02-06T09:40:50Z</time>
      </trkpt>
      <trkpt lat="45.32302" lon="5.75865">
        <ele>1726</ele>
        <time>2020-02-06T09:40:54Z</time>
      </trkpt>
      <trkpt lat="45.32287" lon="5.75845">
        <ele>1723</ele>
        <time>2020-02-06T09:40:58Z</time>
      </trkpt>
      <trkpt lat="45.32272" lon="5.75826">
        <ele>1716</ele>
        <time>2020-02-06T09:41:02Z</time>
      </trkpt>
      <trkpt lat="45.32253" lon="5.75816">
        <ele>1715</ele>
        <time>2020-02-06T09:41:06Z</time>
      </trkpt>
      <trkpt lat="45.32235" lon="5.75809">
        <ele>1710</ele>
        <time>2020-02-06T09:41:10Z</time>
      </trkpt>
      <trkpt lat="45.32209" lon="5.75802">
        <ele>1708</ele>
        <time>2020-02-06T09:41:16Z</time>
      </trkpt>
      <trkpt lat="45.32189" lon="5.75797">
        <ele>1706</ele>
        <time>2020-02-06T09:41:20Z</time>
      </trkpt>
      <trkpt lat="45.32161" lon="5.758">
        <ele>1698</ele>
        <time>2020-02-06T09:41:26Z</time>
      </trkpt>
      <trkpt lat="45.32139" lon="5.75801">
        <ele>1696</ele>
        <time>2020-02-06T09:41:30Z</time>
      </trkpt>
      <trkpt lat="45.32119" lon="5.75796">
        <ele>1695</ele>
        <time>2020-02-06T09:41:34Z</time>
      </trkpt>
      <trkpt lat="45.32094" lon="5.75791">
        <ele>1693</ele>
        <time>2020-02-06T09:41:38Z</time>
      </trkpt>
      <trkpt lat="45.32074" lon="5.75795">
        <ele>1686</ele>
        <time>2020-02-06T09:41:42Z</time>
      </trkpt>
      <trkpt lat="45.32042" lon="5.75784">
        <ele>1685</ele>
        <time>2020-02-06T09:41:48Z</time>
      </trkpt>
      <trkpt lat="45.32013" lon="5.75775">
        <ele>1684</ele>
        <time>2020-02-06T09:41:52Z</time>
      </trkpt>
      <trkpt lat="45.31989" lon="5.75756">
        <ele>1680</ele>
        <time>2020-02-06T09:41:56Z</time>
      </trkpt>
      <trkpt lat="45.3197" lon="5.75741">
        <ele>1677</ele>
        <time>2020-02-06T09:42:00Z</time>
      </trkpt>
      <trkpt lat="45.31951" lon="5.75727">
        <ele>1676</ele>
        <time>2020-02-06T09:42:06Z</time>
      </trkpt>
      <trkpt lat="45.31933" lon="5.75725">
        <ele>1676</ele>
        <time>2020-02-06T09:42:16Z</time>
      </trkpt>
      <trkpt lat="45.31878" lon="5.75636">
        <ele>1676</ele>
        <time>2020-02-06T09:45:11Z</time>
      </trkpt>
      <trkpt lat="45.31893" lon="5.7562">
        <ele>1677</ele>
        <time>2020-02-06T09:45:18Z</time>
      </trkpt>
      <trkpt lat="45.31876" lon="5.75606">
        <ele>1676</ele>
        <time>2020-02-06T09:45:48Z</time>
      </trkpt>
      <trkpt lat="45.31875" lon="5.7558">
        <ele>1680</ele>
        <time>2020-02-06T09:50:40Z</time>
      </trkpt>
      <trkpt lat="45.3187" lon="5.75554">
        <ele>1681</ele>
        <time>2020-02-06T09:51:10Z</time>
      </trkpt>
      <trkpt lat="45.31872" lon="5.75529">
        <ele>1682</ele>
        <time>2020-02-06T09:51:36Z</time>
      </trkpt>
      <trkpt lat="45.31867" lon="5.75501">
        <ele>1684</ele>
        <time>2020-02-06T09:52:08Z</time>
      </trkpt>
      <trkpt lat="45.31862" lon="5.75474">
        <ele>1690</ele>
        <time>2020-02-06T09:52:34Z</time>
      </trkpt>
      <trkpt lat="45.31862" lon="5.75447">
        <ele>1691</ele>
        <time>2020-02-06T09:53:00Z</time>
      </trkpt>
      <trkpt lat="45.31865" lon="5.7542">
        <ele>1692</ele>
        <time>2020-02-06T09:53:28Z</time>
      </trkpt>
      <trkpt lat="45.31868" lon="5.75394">
        <ele>1689</ele>
        <time>2020-02-06T09:54:16Z</time>
      </trkpt>
      <trkpt lat="45.31852" lon="5.75376">
        <ele>1690</ele>
        <time>2020-02-06T09:54:46Z</time>
      </trkpt>
      <trkpt lat="45.31838" lon="5.75359">
        <ele>1693</ele>
        <time>2020-02-06T09:55:04Z</time>
      </trkpt>
      <trkpt lat="45.3183" lon="5.75333">
        <ele>1704</ele>
        <time>2020-02-06T09:55:30Z</time>
      </trkpt>
      <trkpt lat="45.31814" lon="5.75314">
        <ele>1702</ele>
        <time>2020-02-06T09:56:18Z</time>
      </trkpt>
      <trkpt lat="45.31796" lon="5.75301">
        <ele>1702</ele>
        <time>2020-02-06T09:56:40Z</time>
      </trkpt>
      <trkpt lat="45.3178" lon="5.75285">
        <ele>1702</ele>
        <time>2020-02-06T09:57:14Z</time>
      </trkpt>
      <trkpt lat="45.3176" lon="5.75291">
        <ele>1705</ele>
        <time>2020-02-06T09:57:34Z</time>
      </trkpt>
      <trkpt lat="45.31742" lon="5.75286">
        <ele>1710</ele>
        <time>2020-02-06T09:57:50Z</time>
      </trkpt>
      <trkpt lat="45.31718" lon="5.75273">
        <ele>1710</ele>
        <time>2020-02-06T10:02:06Z</time>
      </trkpt>
      <trkpt lat="45.317" lon="5.75262">
        <ele>1709</ele>
        <time>2020-02-06T10:02:12Z</time>
      </trkpt>
      <trkpt lat="45.31685" lon="5.75246">
        <ele>1704</ele>
        <time>2020-02-06T10:02:20Z</time>
      </trkpt>
      <trkpt lat="45.31657" lon="5.7523">
        <ele>1701</ele>
        <time>2020-02-06T10:02:28Z</time>
      </trkpt>
      <trkpt lat="45.31639" lon="5.75214">
        <ele>1696</ele>
        <time>2020-02-06T10:02:32Z</time>
      </trkpt>
      <trkpt lat="45.31614" lon="5.75201">
        <ele>1693</ele>
        <time>2020-02-06T10:02:38Z</time>
      </trkpt>
      <trkpt lat="45.3159" lon="5.75187">
        <ele>1691</ele>
        <time>2020-02-06T10:02:44Z</time>
      </trkpt>
      <trkpt lat="45.31569" lon="5.75169">
        <ele>1682</ele>
        <time>2020-02-06T10:02:50Z</time>
      </trkpt>
      <trkpt lat="45.31546" lon="5.75161">
        <ele>1668</ele>
        <time>2020-02-06T10:02:54Z</time>
      </trkpt>
      <trkpt lat="45.31519" lon="5.75146">
        <ele>1664</ele>
        <time>2020-02-06T10:03:00Z</time>
      </trkpt>
      <trkpt lat="45.31501" lon="5.75148">
        <ele>1663</ele>
        <time>2020-02-06T10:03:18Z</time>
      </trkpt>
      <trkpt lat="45.31479" lon="5.75137">
        <ele>1650</ele>
        <time>2020-02-06T10:03:28Z</time>
      </trkpt>
      <trkpt lat="45.31459" lon="5.7513">
        <ele>1647</ele>
        <time>2020-02-06T10:03:32Z</time>
      </trkpt>
      <trkpt lat="45.31442" lon="5.75118">
        <ele>1645</ele>
        <time>2020-02-06T10:03:36Z</time>
      </trkpt>
      <trkpt lat="45.31424" lon="5.75111">
        <ele>1642</ele>
        <time>2020-02-06T10:03:40Z</time>
      </trkpt>
      <trkpt lat="45.31405" lon="5.75108">
        <ele>1629</ele>
        <time>2020-02-06T10:03:44Z</time>
      </trkpt>
      <trkpt lat="45.31384" lon="5.75103">
        <ele>1626</ele>
        <time>2020-02-06T10:03:48Z</time>
      </trkpt>
      <trkpt lat="45.31364" lon="5.75103">
        <ele>1622</ele>
        <time>2020-02-06T10:03:52Z</time>
      </trkpt>
      <trkpt lat="45.31343" lon="5.75116">
        <ele>1620</ele>
        <time>2020-02-06T10:03:56Z</time>
      </trkpt>
      <trkpt lat="45.31326" lon="5.75107">
        <ele>1606</ele>
        <time>2020-02-06T10:04:00Z</time>
      </trkpt>
      <trkpt lat="45.31307" lon="5.75108">
        <ele>1604</ele>
        <time>2020-02-06T10:04:04Z</time>
      </trkpt>
      <trkpt lat="45.31286" lon="5.75104">
        <ele>1601</ele>
        <time>2020-02-06T10:04:08Z</time>
      </trkpt>
      <trkpt lat="45.3126" lon="5.75105">
        <ele>1597</ele>
        <time>2020-02-06T10:04:12Z</time>
      </trkpt>
      <trkpt lat="45.31242" lon="5.75104">
        <ele>1584</ele>
        <time>2020-02-06T10:04:16Z</time>
      </trkpt>
      <trkpt lat="45.31222" lon="5.75114">
        <ele>1581</ele>
        <time>2020-02-06T10:04:22Z</time>
      </trkpt>
      <trkpt lat="45.312" lon="5.75099">
        <ele>1576</ele>
        <time>2020-02-06T10:04:36Z</time>
      </trkpt>
      <trkpt lat="45.3118" lon="5.75086">
        <ele>1568</ele>
        <time>2020-02-06T10:04:40Z</time>
      </trkpt>
      <trkpt lat="45.3116" lon="5.75074">
        <ele>1557</ele>
        <time>2020-02-06T10:04:44Z</time>
      </trkpt>
      <trkpt lat="45.31167" lon="5.75098">
        <ele>1568</ele>
        <time>2020-02-06T10:15:04Z</time>
      </trkpt>
      <trkpt lat="45.31236" lon="5.7518">
        <ele>1594</ele>
      </trkpt>
      <trkpt lat="45.31335" lon="5.75225">
        <ele>1636</ele>
      </trkpt>
      <trkpt lat="45.31369" lon="5.75288">
        <ele>1649</ele>
      </trkpt>
      <trkpt lat="45.31372" lon="5.75366">
        <ele>1641</ele>
      </trkpt>
      <trkpt lat="45.31284" lon="5.7541">
        <ele>1631</ele>
      </trkpt>
      <trkpt lat="45.31202" lon="5.75475">
        <ele>1634</ele>
        <time>2020-02-06T10:30:30Z</time>
      </trkpt>
      <trkpt lat="45.31183" lon="5.75477">
        <ele>1635</ele>
        <time>2020-02-06T10:30:51Z</time>
      </trkpt>
      <trkpt lat="45.31165" lon="5.7548">
        <ele>1635</ele>
        <time>2020-02-06T10:31:07Z</time>
      </trkpt>
      <trkpt lat="45.31144" lon="5.75479">
        <ele>1634</ele>
        <time>2020-02-06T10:31:23Z</time>
      </trkpt>
      <trkpt lat="45.31126" lon="5.75473">
        <ele>1633</ele>
        <time>2020-02-06T10:31:39Z</time>
      </trkpt>
      <trkpt lat="45.3111" lon="5.75459">
        <ele>1633</ele>
        <time>2020-02-06T10:31:57Z</time>
      </trkpt>
      <trkpt lat="45.30968" lon="5.75401">
        <ele>1621</ele>
      </trkpt>
      <trkpt lat="45.30743" lon="5.75222">
        <ele>1604</ele>
      </trkpt>
      <trkpt lat="45.30897" lon="5.75558">
        <ele>1562</ele>
      </trkpt>
      <trkpt lat="45.30751" lon="5.75469">
        <ele>1551</ele>
      </trkpt>
      <trkpt lat="45.306" lon="5.7533">
        <ele>1537</ele>
      </trkpt>
      <trkpt lat="45.30632" lon="5.75661">
        <ele>1442</ele>
      </trkpt>
      <trkpt lat="45.30643" lon="5.76088">
        <ele>1301</ele>
      </trkpt>
      <trkpt lat="45.30768" lon="5.76243">
        <ele>1272</ele>
      </trkpt>
      <trkpt lat="45.30826" lon="5.76387">
        <ele>1243</ele>
      </trkpt>
      <trkpt lat="45.30848" lon="5.76451">
        <ele>1229</ele>
      </trkpt>
      <trkpt lat="45.30775" lon="5.7665">
        <ele>1193</ele>
      </trkpt>
      <trkpt lat="45.30902" lon="5.76734">
        <ele>1177</ele>
      </trkpt>
      <trkpt lat="45.30942" lon="5.76736">
        <ele>1183</ele>
        <time>2020-02-06T10:51:22Z</time>
      </trkpt>
      <trkpt lat="45.30904" lon="5.76774">
        <ele>1168</ele>
        <time>2020-02-06T10:51:26Z</time>
      </trkpt>
      <trkpt lat="45.30905" lon="5.768">
        <ele>1165</ele>
        <time>2020-02-06T10:51:52Z</time>
      </trkpt>
      <trkpt lat="45.3092" lon="5.76817">
        <ele>1158</ele>
        <time>2020-02-06T10:52:06Z</time>
      </trkpt>
      <trkpt lat="45.30929" lon="5.7684">
        <ele>1150</ele>
        <time>2020-02-06T10:52:26Z</time>
      </trkpt>
      <trkpt lat="45.30941" lon="5.76863">
        <ele>1148</ele>
        <time>2020-02-06T10:53:24Z</time>
      </trkpt>
      <trkpt lat="45.30942" lon="5.7689">
        <ele>1146</ele>
        <time>2020-02-06T10:54:06Z</time>
      </trkpt>
      <trkpt lat="45.30948" lon="5.76915">
        <ele>1145</ele>
        <time>2020-02-06T10:54:22Z</time>
      </trkpt>
      <trkpt lat="45.30976" lon="5.7693">
        <ele>1136</ele>
        <time>2020-02-06T10:55:30Z</time>
      </trkpt>
      <trkpt lat="45.30996" lon="5.76935">
        <ele>1135</ele>
        <time>2020-02-06T10:55:40Z</time>
      </trkpt>
    </trkseg>
  </trk>
</gpx>